createdAt,value
2024-04-08T07:35:01.281Z,1.70
2024-04-08T07:37:29.155Z,1.50
2024-04-08T07:39:59.600Z,1.67
2024-04-08T07:42:27.564Z,1.73
2024-04-08T07:44:57.845Z,1.90
2024-04-08T07:47:25.767Z,1.80
2024-04-08T07:49:57.327Z,2.03
2024-04-08T07:52:28.166Z,2.00
2024-04-08T07:54:58.423Z,1.93
2024-04-08T07:57:26.018Z,2.23
2024-04-08T07:59:56.294Z,1.83
2024-04-08T08:02:25.398Z,1.37
2024-04-08T08:04:55.882Z,1.80
2024-04-08T08:07:23.552Z,2.27
2024-04-08T08:09:56.704Z,2.20
2024-04-08T08:12:27.564Z,1.60
2024-04-08T08:14:57.864Z,2.00
2024-04-08T08:17:29.603Z,1.63
2024-04-08T08:20:00.198Z,1.27
2024-04-08T08:22:30.454Z,1.47
2024-04-08T08:25:04.208Z,1.37
2024-04-08T08:27:34.511Z,1.03
2024-04-08T08:30:04.788Z,1.50
2024-04-08T08:32:35.095Z,1.03
2024-04-08T08:35:02.732Z,1.20
2024-04-08T08:37:33.069Z,1.27
2024-04-08T08:40:04.060Z,1.50
2024-04-08T08:42:34.534Z,1.60
2024-04-08T08:45:07.102Z,1.67
2024-04-08T08:47:37.428Z,1.67
2024-04-08T08:50:07.216Z,1.77
2024-04-08T08:52:37.771Z,1.50
2024-04-08T08:55:08.388Z,1.60
2024-04-08T08:57:38.735Z,1.90
2024-04-08T09:00:11.661Z,1.97
2024-04-08T09:02:44.170Z,1.47
2024-04-08T09:05:12.032Z,1.60
2024-04-08T09:07:42.293Z,1.87
2024-04-08T09:10:12.693Z,1.80
2024-04-08T09:12:46.585Z,1.80
2024-04-08T09:15:14.607Z,1.70
2024-04-08T09:17:45.935Z,1.70
2024-04-08T09:20:14.825Z,1.90
2024-04-08T09:22:45.415Z,1.77
2024-04-08T09:25:16.597Z,1.70
2024-04-08T09:27:54.704Z,2.13
2024-04-08T09:30:23.573Z,1.50
2024-04-08T09:32:56.325Z,1.30
2024-04-08T09:35:26.170Z,1.70
2024-04-08T09:37:59.507Z,1.80
2024-04-08T09:40:31.843Z,2.03
2024-04-08T09:43:02.853Z,1.70
2024-04-08T09:45:30.532Z,2.03
2024-04-08T09:48:01.225Z,2.20
2024-04-08T09:50:29.763Z,1.80
2024-04-08T09:53:00.257Z,2.20
2024-04-08T09:55:38.632Z,1.60
2024-04-08T09:58:10.638Z,1.77
2024-04-08T10:00:46.471Z,1.77
2024-04-08T10:03:18.337Z,1.63
2024-04-08T10:05:50.253Z,1.73
2024-04-08T10:08:18.871Z,2.03
2024-04-08T10:10:52.271Z,1.50
2024-04-08T10:13:19.860Z,1.37
2024-04-08T10:15:50.192Z,1.47
2024-04-08T10:18:21.035Z,1.50
2024-04-08T10:20:54.148Z,1.70
2024-04-08T10:23:21.881Z,1.83
2024-04-08T10:25:56.936Z,1.37
2024-04-08T10:28:29.593Z,1.53
2024-04-08T10:31:04.485Z,1.67
2024-04-08T10:33:32.176Z,1.40
2024-04-08T10:36:02.650Z,1.30
2024-04-08T10:38:30.320Z,1.27
2024-04-08T10:41:09.259Z,1.37
2024-04-08T10:43:37.969Z,1.73
2024-04-08T10:46:09.266Z,1.67
2024-04-08T10:48:40.490Z,1.73
2024-04-08T10:51:13.337Z,1.97
2024-04-08T10:53:41.840Z,1.73
2024-04-08T10:56:14.975Z,1.40
2024-04-08T10:58:42.558Z,1.50
2024-04-08T11:01:16.485Z,1.70
2024-04-08T11:03:44.674Z,1.67
2024-04-08T11:06:15.898Z,1.63
2024-04-08T11:08:43.720Z,1.57
2024-04-08T11:11:17.023Z,1.10
2024-04-08T11:13:47.631Z,1.27
2024-04-08T11:16:20.062Z,0.90
2024-04-08T11:18:48.631Z,2.00
2024-04-08T11:21:19.393Z,1.53
2024-04-08T11:23:47.080Z,1.40
2024-04-08T11:26:21.707Z,1.50
2024-04-08T11:28:49.333Z,1.23
2024-04-08T11:31:19.667Z,1.50
2024-04-08T11:33:47.364Z,1.20
2024-04-08T11:36:19.428Z,1.47
2024-04-08T11:38:47.645Z,1.70
2024-04-08T11:41:20.674Z,1.77
2024-04-08T11:43:48.832Z,1.37
2024-04-08T11:46:20.144Z,1.30
2024-04-08T11:48:47.837Z,1.90
2024-04-08T11:51:18.194Z,0.97
2024-04-08T11:53:45.964Z,1.57
2024-04-08T11:56:18.954Z,2.03
2024-04-08T11:58:46.665Z,1.60
2024-04-08T12:01:18.146Z,1.50
2024-04-08T12:03:45.984Z,1.23
2024-04-08T12:06:16.919Z,1.80
2024-04-08T12:08:44.633Z,1.10
2024-04-08T12:11:15.290Z,1.60
2024-04-08T12:13:45.546Z,1.97
2024-04-08T12:16:16.832Z,1.93
2024-04-08T12:18:47.718Z,1.83
2024-04-08T12:21:15.537Z,1.67
2024-04-08T12:23:45.838Z,1.77
2024-04-08T12:26:14.982Z,1.87
2024-04-08T12:28:48.082Z,1.70
2024-04-08T12:31:15.948Z,1.80
2024-04-08T12:33:46.285Z,2.10
2024-04-08T12:36:14.219Z,1.27
2024-04-08T12:38:44.642Z,2.73
2024-04-08T12:41:12.326Z,1.70
2024-04-08T12:43:50.947Z,2.10
2024-04-08T12:46:25.786Z,2.00
2024-04-08T12:48:56.167Z,1.60
2024-04-08T12:51:23.959Z,2.17
2024-04-08T12:53:54.340Z,1.87
2024-04-08T12:56:22.183Z,2.83
2024-04-08T12:58:57.232Z,1.30
2024-04-08T13:01:27.769Z,1.73
2024-04-08T13:03:58.660Z,1.70
2024-04-08T13:06:26.832Z,1.90
2024-04-08T13:08:57.323Z,1.87
2024-04-08T13:11:25.140Z,1.53
2024-04-08T13:13:55.402Z,1.83
2024-04-08T13:16:23.350Z,1.60
2024-04-08T13:18:56.616Z,1.80
2024-04-08T13:21:27.510Z,2.10
2024-04-08T13:23:58.225Z,2.03
2024-04-08T13:26:27.383Z,2.20
2024-04-08T13:28:57.658Z,2.10
2024-04-08T13:31:25.270Z,2.20
2024-04-08T13:34:00.526Z,1.60
2024-04-08T13:36:28.510Z,1.10
2024-04-08T13:38:59.215Z,1.80
2024-04-08T13:41:26.838Z,1.63
2024-04-08T13:43:57.068Z,1.80
2024-04-08T13:46:24.948Z,1.83
2024-04-08T13:48:57.950Z,1.50
2024-04-08T13:51:25.623Z,1.73
2024-04-08T13:53:56.032Z,1.90
2024-04-08T13:56:23.637Z,2.00
2024-04-08T13:58:55.346Z,1.40
2024-04-08T14:01:23.010Z,1.73
2024-04-08T14:03:54.365Z,1.70
2024-04-08T14:06:24.823Z,1.57
2024-04-08T14:08:55.138Z,1.70
2024-04-08T14:11:22.997Z,1.60
2024-04-08T14:13:53.278Z,2.23
2024-04-08T14:16:25.087Z,2.00
2024-04-08T14:18:56.037Z,2.10
2024-04-08T14:21:26.379Z,1.57
2024-04-08T14:23:56.665Z,1.90
2024-04-08T14:26:24.354Z,2.33
2024-04-08T14:28:54.635Z,1.80
2024-04-08T14:31:22.247Z,2.63
2024-04-08T14:33:52.632Z,2.33
2024-04-08T14:36:20.448Z,1.93
2024-04-08T14:39:05.618Z,2.07
2024-04-08T14:41:44.039Z,2.00
2024-04-08T14:44:19.189Z,1.67
2024-04-08T14:46:54.951Z,1.70
2024-04-08T14:49:27.227Z,2.17
2024-04-08T14:52:02.951Z,1.60
2024-04-08T14:54:43.323Z,1.63
2024-04-08T14:57:11.224Z,1.93
2024-04-08T14:59:41.988Z,1.83
2024-04-08T15:02:09.645Z,1.70
2024-04-08T15:04:39.966Z,1.87
2024-04-08T15:07:14.027Z,1.50
2024-04-08T15:09:52.561Z,1.97
2024-04-08T15:12:20.225Z,1.50
2024-04-08T15:14:50.632Z,2.70
2024-04-08T15:17:21.507Z,2.07
2024-04-08T15:19:53.215Z,1.80
2024-04-08T15:22:20.832Z,1.80
2024-04-08T15:24:54.369Z,1.50
2024-04-08T15:27:21.994Z,1.60
2024-04-08T15:29:54.148Z,1.30
2024-04-08T15:32:22.528Z,1.40
2024-04-08T15:34:53.138Z,1.10
2024-04-08T15:37:21.761Z,1.47
2024-04-08T15:39:55.761Z,1.67
2024-04-08T15:42:24.303Z,1.60
2024-04-08T15:44:55.022Z,1.37
2024-04-08T15:47:23.106Z,1.53
2024-04-08T15:49:53.467Z,1.30
2024-04-08T15:52:21.076Z,1.30
2024-04-08T15:54:53.463Z,1.53
2024-04-08T15:57:24.195Z,2.60
2024-04-08T15:59:54.634Z,2.83
2024-04-08T16:02:22.589Z,2.07
2024-04-08T16:04:53.254Z,1.43
2024-04-08T16:07:21.046Z,2.40
2024-04-08T16:09:54.323Z,1.67
2024-04-08T16:12:24.672Z,1.23
2024-04-08T16:14:54.956Z,1.23
2024-04-08T16:17:22.672Z,2.10
2024-04-08T16:19:53.349Z,1.80
2024-04-08T16:22:27.279Z,2.10
2024-04-08T16:24:59.819Z,1.80
2024-04-08T16:27:33.036Z,1.70
2024-04-08T16:30:03.400Z,2.07
2024-04-08T16:32:31.100Z,2.20
2024-04-08T16:35:01.530Z,2.17
2024-04-08T16:37:29.639Z,2.30
2024-04-08T16:39:59.912Z,2.10
2024-04-08T16:42:30.249Z,2.50
2024-04-08T16:45:00.626Z,2.63
2024-04-08T16:47:28.402Z,2.27
2024-04-08T16:49:58.752Z,1.60
2024-04-08T16:52:26.987Z,1.60
2024-04-08T16:54:57.218Z,2.00
2024-04-08T16:57:24.873Z,2.20
2024-04-08T16:59:59.885Z,2.00
2024-04-08T17:02:27.576Z,2.47
2024-04-08T17:04:57.927Z,2.50
2024-04-08T17:07:28.739Z,2.37
2024-04-08T17:09:59.603Z,2.50
2024-04-08T17:12:27.714Z,2.00
2024-04-08T17:15:00.763Z,1.50
2024-04-08T17:17:28.446Z,2.10
2024-04-08T17:19:58.759Z,1.67
2024-04-08T17:22:26.382Z,2.13
2024-04-08T17:24:56.623Z,1.77
2024-04-08T17:27:24.359Z,2.10
2024-04-08T17:29:54.647Z,2.03
2024-04-08T17:32:25.066Z,1.73
2024-04-08T17:34:56.579Z,2.53
2024-04-08T17:37:24.793Z,1.73
2024-04-08T17:39:55.147Z,1.80
2024-04-08T17:42:29.611Z,2.10
2024-04-08T17:45:02.668Z,1.53
2024-04-08T17:47:34.866Z,2.17
2024-04-08T17:50:05.219Z,1.87
2024-04-08T17:52:32.848Z,1.70
2024-04-08T17:55:03.115Z,2.00
2024-04-08T17:57:30.965Z,1.90
2024-04-08T18:00:01.544Z,2.03
2024-04-08T18:02:32.143Z,2.10
2024-04-08T18:05:02.414Z,2.00
2024-04-08T18:07:33.930Z,2.10
2024-04-08T18:10:04.271Z,1.77
2024-04-08T18:12:31.967Z,1.87
2024-04-08T18:15:02.334Z,2.10
2024-04-08T18:17:32.691Z,1.80
2024-04-08T18:20:03.184Z,2.43
2024-04-08T18:22:30.832Z,1.80
2024-04-08T18:25:01.098Z,2.43
2024-04-08T18:27:28.783Z,2.33
2024-04-08T18:29:59.173Z,2.43
2024-04-08T18:32:26.832Z,2.20
2024-04-08T18:34:59.835Z,3.20
2024-04-08T18:37:27.427Z,3.37
2024-04-08T18:39:58.933Z,2.80
2024-04-08T18:42:26.601Z,2.47
2024-04-08T18:44:58.013Z,2.93
2024-04-08T18:47:25.741Z,3.00
2024-04-08T18:49:56.070Z,3.10
2024-04-08T18:52:26.313Z,3.30
2024-04-08T18:54:56.589Z,2.53
2024-04-08T18:57:24.204Z,3.80
2024-04-08T18:59:54.549Z,3.70
2024-04-08T19:02:22.152Z,3.63
2024-04-08T19:04:52.430Z,2.67
2024-04-08T19:07:22.322Z,3.10
2024-04-08T19:09:55.674Z,3.13
2024-04-08T19:12:23.565Z,2.53
2024-04-08T19:14:54.575Z,3.17
2024-04-08T19:17:23.292Z,3.53
2024-04-08T19:19:53.549Z,3.70
2024-04-08T19:22:21.282Z,3.33
2024-04-08T19:24:56.978Z,3.03
2024-04-08T19:27:26.926Z,3.27
2024-04-08T19:29:57.342Z,3.93
2024-04-08T19:32:25.075Z,3.10
2024-04-08T19:34:56.258Z,2.70
2024-04-08T19:37:24.107Z,3.20
2024-04-08T19:39:57.131Z,3.13
2024-04-08T19:42:24.845Z,3.43
2024-04-08T19:44:58.055Z,3.90
2024-04-08T19:47:27.282Z,3.80
2024-04-08T19:49:59.168Z,2.93
2024-04-08T19:52:26.993Z,2.77
2024-04-08T19:54:59.886Z,3.53
2024-04-08T19:57:27.667Z,3.73
2024-04-08T19:59:57.977Z,2.70
2024-04-08T20:02:25.658Z,3.67
2024-04-08T20:04:55.916Z,3.90
2024-04-08T20:07:23.528Z,3.80
2024-04-08T20:09:53.775Z,3.60
2024-04-08T20:12:24.064Z,3.20
2024-04-08T20:14:54.638Z,3.03
2024-04-08T20:17:22.383Z,3.47
2024-04-08T20:19:52.627Z,2.93
2024-04-08T20:22:20.282Z,3.80
2024-04-08T20:24:53.472Z,3.60
2024-04-08T20:27:23.817Z,4.23
2024-04-08T20:29:54.161Z,3.23
2024-04-08T20:32:21.934Z,3.50
2024-04-08T20:34:52.180Z,3.70
2024-04-08T20:37:20.290Z,3.93
2024-04-08T20:39:50.712Z,3.33
2024-04-08T20:42:18.435Z,3.27
2024-04-08T20:44:51.548Z,3.93
2024-04-08T20:47:19.422Z,3.70
2024-04-08T20:49:52.088Z,3.47
2024-04-08T20:52:20.001Z,3.50
2024-04-08T20:54:50.307Z,2.73
2024-04-08T20:57:17.942Z,3.43
2024-04-08T20:59:50.899Z,4.00
2024-04-08T21:02:18.581Z,3.37
2024-04-08T21:04:49.273Z,3.53
2024-04-08T21:07:16.956Z,3.33
2024-04-08T21:09:47.545Z,3.33
2024-04-08T21:12:15.639Z,3.47
2024-04-08T21:14:45.960Z,2.90
2024-04-08T21:17:16.221Z,3.63
2024-04-08T21:19:46.516Z,3.63
2024-04-08T21:22:14.136Z,3.10
2024-04-08T21:24:44.392Z,3.80
2024-04-08T21:27:12.228Z,3.23
2024-04-08T21:29:42.468Z,3.20
2024-04-08T21:32:10.198Z,3.20
2024-04-08T21:34:44.515Z,3.13
2024-04-08T21:37:12.132Z,2.87
2024-04-08T21:39:42.378Z,3.27
2024-04-08T21:42:11.156Z,3.53
2024-04-08T21:44:41.422Z,3.47
2024-04-08T21:47:09.206Z,3.63
2024-04-08T21:49:42.334Z,3.47
2024-04-08T21:52:10.005Z,2.97
2024-04-08T21:54:40.255Z,3.53
2024-04-08T21:57:07.970Z,3.73
2024-04-08T21:59:38.207Z,3.40
2024-04-08T22:02:06.192Z,3.53
2024-04-08T22:04:36.474Z,4.10
2024-04-08T22:07:06.773Z,4.13
2024-04-08T22:09:37.074Z,4.20
2024-04-08T22:12:05.058Z,3.47
2024-04-08T22:14:35.326Z,3.80
2024-04-08T22:17:02.937Z,3.10
2024-04-08T22:19:33.364Z,3.37
2024-04-08T22:22:01.058Z,3.00
2024-04-08T22:24:34.041Z,3.80
2024-04-08T22:27:01.755Z,3.40
2024-04-08T22:29:34.224Z,4.57
2024-04-08T22:32:01.894Z,3.70
2024-04-08T22:34:32.226Z,3.40
2024-04-08T22:36:59.831Z,3.60
2024-04-08T22:39:30.102Z,3.03
2024-04-08T22:42:00.447Z,3.20
2024-04-08T22:44:30.734Z,3.40
2024-04-08T22:46:58.359Z,4.10
2024-04-08T22:49:28.643Z,3.30
2024-04-08T22:51:56.295Z,3.90
2024-04-08T22:54:26.590Z,3.83
2024-04-08T22:56:54.231Z,3.60
2024-04-08T22:59:27.144Z,3.53
2024-04-08T23:01:54.748Z,4.23
2024-04-08T23:04:25.420Z,3.60
2024-04-08T23:06:53.172Z,4.13
2024-04-08T23:09:23.518Z,4.13
2024-04-08T23:11:51.161Z,3.40
2024-04-08T23:14:21.400Z,3.03
2024-04-08T23:16:51.690Z,3.70
2024-04-08T23:19:22.074Z,3.53
2024-04-08T23:21:49.778Z,3.17
2024-04-08T23:24:20.093Z,3.60
2024-04-08T23:26:47.710Z,3.30
2024-04-08T23:29:19.359Z,3.73
2024-04-08T23:31:50.855Z,3.80
2024-04-08T23:34:21.177Z,3.67
2024-04-08T23:36:48.847Z,3.83
2024-04-08T23:39:19.315Z,3.40
2024-04-08T23:41:47.040Z,3.70
2024-04-08T23:44:17.299Z,3.40
2024-04-08T23:46:44.952Z,3.90
2024-04-08T23:49:18.032Z,3.80
2024-04-08T23:51:45.656Z,3.93
2024-04-08T23:54:15.984Z,2.90
2024-04-08T23:56:43.639Z,3.13
2024-04-08T23:59:13.901Z,3.03
